Blue River, Canada
Current Conditions -  °F | °C
As of 4:06 AM on Saturday 25 Oct 2014 (Local Time) from CYRV Reporting Station
Haze Haze  
Wind Chill: 39°   Ceiling: 10000
Heat Index: 39°   Visibility: 4mi
Dew Point: 37°   Wind: 0mph
Humidity: 93%   Direction: NA
Pressure: 29.95"   Gusts: NA
Location:  52.11°N, 119.31°W
Report Text: CYRV 251106Z AUTO 00000KT 4SM BR BKN100 OVC130 04/03 A2995 RMK SLP153
Loading
Personal Weather Stations






























Interactive Weather Map
Tropical Storm Tracking
New forecast layout! Learn more

10-Day Weather Forecast

Advertisements
Track Severe Weather on mobile